Time;durP1;ratioP1;P1;durP2;ratioP2;P2;SDS_P1;SDS_P2;PMS_P1;PMS_P2;Temp;Humidity;BMP_temperature;BMP_pressure;BME280_temperature;BME280_humidity;BME280_pressure;Samples;Min_cycle;Max_cycle;Signal;HPM_P1;HPM_P2
2021/03/21 00:02:13;;;;;;;11.27;4.32;;;;;;;1.51;54.53;99534.53;4970980;28;20110;-71
2021/03/21 00:04:38;;;;;;;8.50;4.50;;;;;;;1.63;54.54;99546.84;4958856;28;20046;-71
2021/03/21 00:07:04;;;;;;;8.80;4.15;;;;;;;1.60;54.60;99548.91;4954617;28;20034;-72
2021/03/21 00:09:29;;;;;;;6.38;3.75;;;;;;;1.47;54.15;99547.28;4974995;28;20038;-71
2021/03/21 00:11:54;;;;;;;11.57;3.95;;;;;;;1.46;54.47;99547.41;5269701;22;20103;-71
2021/03/21 00:14:19;;;;;;;8.43;4.00;;;;;;;1.46;55.08;99555.41;5005293;28;20053;-70
2021/03/21 00:16:45;;;;;;;8.63;4.30;;;;;;;1.60;55.88;99552.44;5004094;28;20053;-72
2021/03/21 00:19:11;;;;;;;12.20;4.97;;;;;;;1.57;54.39;99546.50;5006868;28;20072;-72
2021/03/21 00:21:36;;;;;;;11.80;4.60;;;;;;;1.57;54.41;99552.69;5003632;28;20029;-72
2021/03/21 00:24:06;;;;;;;10.98;4.07;;;;;;;1.54;54.95;99528.94;5029762;28;20037;-72
2021/03/21 00:26:31;;;;;;;8.32;4.22;;;;;;;1.61;54.74;99523.94;5026199;28;20423;-72
2021/03/21 00:28:57;;;;;;;10.30;4.45;;;;;;;1.66;54.17;99548.41;5022475;28;20041;-72
2021/03/21 00:31:22;;;;;;;9.68;4.03;;;;;;;1.54;54.29;99543.09;5005580;28;20080;-70
2021/03/21 00:33:48;;;;;;;9.55;4.07;;;;;;;1.66;54.04;99540.41;4993133;28;20026;-72
2021/03/21 00:36:15;;;;;;;6.70;4.13;;;;;;;1.65;54.90;99541.38;5009132;28;20037;-71
2021/03/21 00:38:44;;;;;;;7.88;3.95;;;;;;;1.72;55.76;99542.56;5018554;28;20068;-72
2021/03/21 00:41:12;;;;;;;8.98;4.60;;;;;;;1.70;55.96;99536.50;5029554;28;20059;-72
2021/03/21 00:43:38;;;;;;;8.35;3.75;;;;;;;1.72;55.14;99527.38;5010045;28;20476;-71
2021/03/21 00:46:04;;;;;;;9.07;4.18;;;;;;;1.69;56.73;99538.31;4997556;28;20044;-71
2021/03/21 00:48:37;;;;;;;9.15;4.60;;;;;;;1.68;57.23;99525.13;5028932;28;20505;-72
2021/03/21 00:51:03;;;;;;;8.25;4.10;;;;;;;1.72;57.19;99523.88;5018885;28;20171;-72
2021/03/21 00:53:29;;;;;;;7.38;4.28;;;;;;;1.61;58.61;99518.63;5021036;28;20509;-72
2021/03/21 00:55:55;;;;;;;6.78;4.47;;;;;;;1.59;57.95;99516.06;4998469;28;20098;-72
2021/03/21 00:58:20;;;;;;;8.05;4.30;;;;;;;1.54;58.48;99504.94;5015295;28;20026;-71
2021/03/21 01:00:59;;;;;;;7.53;4.47;;;;;;;1.42;58.86;99498.81;5028862;28;20037;-71
2021/03/21 01:03:24;;;;;;;8.55;4.75;;;;;;;1.54;58.97;99505.78;5009735;28;20529;-72
2021/03/21 01:05:58;;;;;;;7.22;4.20;;;;;;;1.54;58.96;99513.78;4997121;28;20032;-71
2021/03/21 01:08:32;;;;;;;8.57;4.75;;;;;;;1.54;58.72;99508.44;4991618;28;20041;-72
2021/03/21 01:11:00;;;;;;;9.60;4.55;;;;;;;1.55;58.46;99506.66;4975600;28;20034;-72
2021/03/21 01:13:26;;;;;;;7.65;4.80;;;;;;;1.51;58.33;99511.38;4999553;28;20391;-71
2021/03/21 01:15:52;;;;;;;8.05;4.95;;;;;;;1.45;58.66;99503.91;4989835;28;20041;-71
2021/03/21 01:18:19;;;;;;;7.45;4.82;;;;;;;1.45;58.76;99498.56;5007898;28;20383;-72
2021/03/21 01:20:45;;;;;;;10.68;5.28;;;;;;;1.45;59.11;99484.38;5010977;28;20083;-72
2021/03/21 01:23:11;;;;;;;11.02;4.70;;;;;;;1.52;58.34;99496.25;4994952;28;20110;-72
2021/03/21 01:25:36;;;;;;;10.00;5.13;;;;;;;1.43;59.11;99475.66;5001873;28;20119;-72
2021/03/21 01:28:02;;;;;;;9.20;4.65;;;;;;;1.42;58.92;99484.66;5013716;28;20021;-72
2021/03/21 01:30:27;;;;;;;10.80;5.28;;;;;;;1.42;59.16;99474.81;5026288;28;20029;-72
2021/03/21 01:32:54;;;;;;;11.02;5.65;;;;;;;1.52;59.56;99478.41;5032289;28;20071;-71
2021/03/21 01:35:20;;;;;;;10.32;6.07;;;;;;;1.49;58.78;99462.69;5010607;28;20030;-72
2021/03/21 01:37:45;;;;;;;11.35;5.75;;;;;;;1.65;57.28;99456.88;5013752;28;20028;-71
2021/03/21 01:40:14;;;;;;;14.85;5.43;;;;;;;1.62;56.81;99470.47;5014876;28;20437;-71
2021/03/21 01:42:43;;;;;;;8.30;4.60;;;;;;;1.52;57.02;99457.09;5022637;28;20030;-71
2021/03/21 01:45:43;;;;;;;7.45;4.07;;;;;;;1.56;56.64;99467.47;5003660;28;20391;-72
2021/03/21 01:48:18;;;;;;;7.22;3.83;;;;;;;1.43;56.26;99460.50;5015344;28;20026;-71
2021/03/21 01:50:55;;;;;;;9.80;4.72;;;;;;;1.52;56.25;99453.56;5014987;28;20776;-71
2021/03/21 01:53:24;;;;;;;9.20;4.63;;;;;;;1.43;56.48;99449.00;5000587;28;20044;-71
2021/03/21 01:55:52;;;;;;;7.90;3.97;;;;;;;1.44;56.86;99445.34;4995764;28;20034;-70
2021/03/21 01:58:19;;;;;;;9.02;4.05;;;;;;;1.60;56.31;99445.78;4994493;28;20037;-71
2021/03/21 02:00:45;;;;;;;7.57;3.83;;;;;;;1.72;55.84;99441.19;4996631;28;20034;-71
2021/03/21 02:03:12;;;;;;;9.30;3.80;;;;;;;1.58;56.29;99436.22;5031652;28;20488;-73
2021/03/21 02:05:39;;;;;;;8.48;4.30;;;;;;;1.62;56.86;99448.28;5031004;28;20022;-70
2021/03/21 02:08:29;;;;;;;8.43;4.20;;;;;;;1.60;57.03;99447.56;5021043;28;20048;-71
2021/03/21 02:11:14;;;;;;;7.40;4.00;;;;;;;1.51;57.20;99436.72;4994919;28;20037;-71
2021/03/21 02:13:59;;;;;;;5.45;3.80;;;;;;;1.55;57.03;99437.31;4991559;28;20104;-71
2021/03/21 02:16:31;;;;;;;6.88;3.30;;;;;;;1.41;56.87;99429.63;5012664;28;20032;-72
2021/03/21 02:19:38;;;;;;;9.52;3.58;;;;;;;1.38;57.16;99440.53;5000147;28;20030;-72
2021/03/21 02:22:11;;;;;;;7.88;4.05;;;;;;;1.38;57.79;99441.38;5021887;28;20026;-72
2021/03/21 02:24:42;;;;;;;6.82;3.60;;;;;;;1.31;57.73;99440.22;5005538;28;20091;-71
2021/03/21 02:27:23;;;;;;;8.90;3.70;;;;;;;1.30;58.11;99430.53;4995385;28;20121;-72
2021/03/21 02:30:04;;;;;;;9.48;4.07;;;;;;;1.28;58.23;99422.69;5020901;28;20054;-71
2021/03/21 02:32:44;;;;;;;6.50;3.53;;;;;;;1.27;57.90;99423.63;4991842;28;20046;-70
2021/03/21 02:35:39;;;;;;;6.55;3.45;;;;;;;1.34;58.33;99423.09;4996540;28;20037;-71
2021/03/21 02:38:20;;;;;;;7.32;3.70;;;;;;;1.37;58.49;99423.72;5005821;28;20052;-72
2021/03/21 02:40:58;;;;;;;7.28;3.65;;;;;;;1.38;58.38;99417.38;5011665;28;20037;-72
2021/03/21 02:43:47;;;;;;;6.63;3.35;;;;;;;1.35;59.10;99414.16;5009532;28;20030;-70
2021/03/21 02:46:18;;;;;;;;;;;;;;;1.31;59.16;99408.25;5011177;28;20038;-72
2021/03/21 02:48:52;;;;;;;6.63;3.70;;;;;;;1.28;59.41;99408.47;5009240;28;19929;-72
2021/03/21 02:51:33;;;;;;;5.53;3.22;;;;;;;1.24;58.66;99407.91;4994625;28;20045;-72
2021/03/21 02:54:14;;;;;;;5.53;3.40;;;;;;;1.31;58.78;99397.59;5009638;28;20026;-72
2021/03/21 02:56:42;;;;;;;5.20;3.33;;;;;;;1.30;58.79;99396.72;4991281;28;20034;-70
2021/03/21 02:59:12;;;;;;;6.07;3.20;;;;;;;1.35;58.52;99380.34;5004636;28;20065;-72
2021/03/21 03:01:44;;;;;;;5.93;3.50;;;;;;;1.28;58.97;99373.81;4999569;28;20034;-72
2021/03/21 03:04:21;;;;;;;8.27;3.28;;;;;;;1.36;58.24;99376.69;5009536;28;20026;-72
2021/03/21 03:06:52;;;;;;;7.90;3.40;;;;;;;1.30;58.72;99383.38;5019660;28;20033;-72
2021/03/21 03:09:25;;;;;;;7.72;3.35;;;;;;;1.45;58.81;99377.75;5020318;28;20085;-72
2021/03/21 03:11:55;;;;;;;6.03;3.10;;;;;;;1.39;59.54;99383.56;4998626;28;20116;-72
2021/03/21 03:14:28;;;;;;;7.20;3.83;;;;;;;1.48;59.10;99386.31;4998887;28;20033;-72
2021/03/21 03:17:01;;;;;;;9.82;3.28;;;;;;;1.43;58.95;99379.69;5029615;28;20501;-72
2021/03/21 03:19:46;;;;;;;6.78;4.10;;;;;;;1.36;59.95;99374.00;5019865;28;20033;-72
2021/03/21 03:22:52;;;;;;;9.05;3.85;;;;;;;1.42;58.93;99380.66;4995522;28;20581;-72
2021/03/21 03:25:29;;;;;;;7.85;3.70;;;;;;;1.40;59.26;99364.78;5007319;28;20036;-71
2021/03/21 03:28:18;;;;;;;7.97;4.07;;;;;;;1.46;58.95;99366.91;4991759;28;20113;-70
2021/03/21 03:30:50;;;;;;;7.30;3.63;;;;;;;1.57;58.62;99365.16;5003568;28;20038;-72
2021/03/21 03:33:17;;;;;;;9.30;4.05;;;;;;;1.53;58.63;99360.09;5001204;28;20029;-71
2021/03/21 03:35:42;;;;;;;7.55;3.97;;;;;;;1.50;59.49;99352.38;4992287;28;20030;-72
2021/03/21 03:38:10;;;;;;;9.07;3.83;;;;;;;1.52;60.20;99366.41;5001570;28;20373;-72
2021/03/21 03:40:37;;;;;;;7.05;3.28;;;;;;;1.51;61.19;99364.72;5000282;28;20037;-72
2021/03/21 03:43:54;;;;;;;6.60;3.85;;;;;;;1.52;62.00;99371.75;5016725;28;20487;-72
2021/03/21 03:46:26;;;;;;;6.65;3.60;;;;;;;1.52;60.78;99362.91;5019953;28;20045;-72
2021/03/21 03:49:02;;;;;;;5.88;3.10;;;;;;;1.41;61.14;99349.63;5029831;28;20036;-72
2021/03/21 03:51:35;;;;;;;7.47;4.05;;;;;;;1.42;60.87;99357.50;4995510;28;20033;-72
2021/03/21 03:54:14;;;;;;;7.28;3.97;;;;;;;1.40;60.83;99362.13;5015741;28;20602;-71
2021/03/21 03:56:58;;;;;;;6.93;3.72;;;;;;;1.43;60.53;99347.69;5029548;28;20090;-72
2021/03/21 03:59:32;;;;;;;7.05;3.35;;;;;;;1.47;60.47;99365.13;5014625;28;20496;-72
2021/03/21 04:02:02;;;;;;;8.40;4.18;;;;;;;1.31;61.10;99352.25;5006940;28;20026;-71
2021/03/21 04:04:42;;;;;;;7.85;4.00;;;;;;;1.46;60.98;99350.94;4990399;28;20101;-72
2021/03/21 04:07:21;;;;;;;8.25;3.50;;;;;;;1.31;61.58;99352.25;5002720;28;20581;-71
2021/03/21 04:09:56;;;;;;;8.80;3.83;;;;;;;1.31;61.13;99344.28;5026899;28;20100;-70
2021/03/21 04:12:34;;;;;;;6.78;3.88;;;;;;;1.25;61.30;99347.44;5008682;28;20084;-71
2021/03/21 04:15:13;;;;;;;6.32;3.35;;;;;;;1.12;61.92;99333.47;5007897;28;20064;-72
2021/03/21 04:17:48;;;;;;;13.48;5.30;;;;;;;1.13;62.75;99337.81;4990960;28;20433;-72
2021/03/21 04:20:48;;;;;;;8.90;4.60;;;;;;;1.13;62.81;99332.47;5018194;28;20042;-72
2021/03/21 04:23:21;;;;;;;12.77;4.97;;;;;;;1.14;63.11;99331.53;4977095;28;20048;-71
2021/03/21 04:25:51;;;;;;;7.93;3.90;;;;;;;1.14;61.58;99327.03;5020581;28;20029;-72
2021/03/21 04:28:22;;;;;;;8.02;4.30;;;;;;;1.00;61.60;99296.25;5015780;28;20105;-72
2021/03/21 04:30:52;;;;;;;6.10;3.65;;;;;;;1.17;60.56;99321.44;5002883;28;20026;-71
2021/03/21 04:33:24;;;;;;;6.78;3.90;;;;;;;1.28;60.62;99309.84;4994543;28;20045;-71
2021/03/21 04:35:55;;;;;;;5.95;3.70;;;;;;;1.23;59.88;99304.94;5011494;28;20108;-71
2021/03/21 04:38:28;;;;;;;5.13;2.67;;;;;;;1.20;59.99;99315.00;5029226;28;20091;-72
2021/03/21 04:40:54;;;;;;;10.20;3.38;;;;;;;1.17;59.61;99297.44;5026662;28;20116;-71
2021/03/21 04:43:30;;;;;;;9.60;3.65;;;;;;;1.25;60.21;99292.31;5006037;28;20448;-71
2021/03/21 04:46:01;;;;;;;7.10;3.08;;;;;;;1.12;60.59;99275.69;5025102;28;20033;-71
2021/03/21 04:48:26;;;;;;;6.38;3.10;;;;;;;1.14;59.66;99264.91;5028148;28;20036;-71
2021/03/21 04:51:01;;;;;;;6.10;2.70;;;;;;;1.28;59.44;99288.53;5002608;28;20037;-71
2021/03/21 04:53:51;;;;;;;7.07;2.85;;;;;;;1.29;60.51;99301.75;4997301;28;20029;-72
2021/03/21 04:56:29;;;;;;;4.75;2.75;;;;;;;1.41;59.56;99310.47;4988458;28;20066;-71
2021/03/21 04:59:04;;;;;;;5.32;2.53;;;;;;;1.38;59.50;99307.25;4989600;28;20046;-71
2021/03/21 05:01:37;;;;;;;5.30;2.50;;;;;;;1.38;59.29;99318.75;5005138;28;20049;-71
2021/03/21 05:04:11;;;;;;;4.70;2.45;;;;;;;1.41;59.23;99306.97;5002394;28;20027;-71
2021/03/21 05:07:08;;;;;;;6.75;2.78;;;;;;;1.42;58.72;99309.53;5004714;28;20075;-71
2021/03/21 05:09:44;;;;;;;5.40;2.63;;;;;;;1.43;58.77;99316.53;5027810;28;20697;-72
2021/03/21 05:12:21;;;;;;;4.95;2.42;;;;;;;1.41;59.12;99317.63;5022026;28;20045;-72
2021/03/21 05:14:57;;;;;;;5.60;2.30;;;;;;;1.46;58.32;99302.94;5009116;28;20030;-71
2021/03/21 05:17:38;;;;;;;4.50;2.40;;;;;;;1.61;58.39;99303.44;5007268;28;20028;-71
2021/03/21 05:20:15;;;;;;;5.72;2.70;;;;;;;1.53;58.89;99312.09;4990035;28;20105;-71
2021/03/21 05:22:47;;;;;;;7.40;2.35;;;;;;;1.54;59.17;99310.25;5022723;28;20029;-72
2021/03/21 05:25:21;;;;;;;5.47;2.58;;;;;;;1.48;59.01;99294.81;5019913;28;20056;-70
2021/03/21 05:27:58;;;;;;;5.13;2.90;;;;;;;1.68;58.79;99314.41;4991476;28;20022;-71
2021/03/21 05:30:29;;;;;;;9.23;2.90;;;;;;;1.56;58.80;99312.81;5028516;28;20040;-73
2021/03/21 05:32:54;;;;;;;6.57;3.08;;;;;;;1.55;58.80;99306.66;5023970;28;20025;-72
2021/03/21 05:35:38;;;;;;;4.63;2.47;;;;;;;1.71;57.78;99314.97;5006882;28;20157;-72
2021/03/21 05:38:32;;;;;;;5.78;2.60;;;;;;;1.73;57.52;99317.53;5007302;28;20018;-72
2021/03/21 05:41:06;;;;;;;6.97;3.22;;;;;;;1.70;58.52;99317.78;4995153;28;20038;-72
2021/03/21 05:43:51;;;;;;;5.57;3.05;;;;;;;1.63;58.50;99311.31;5028597;28;20480;-71
2021/03/21 05:46:46;;;;;;;5.65;3.00;;;;;;;1.58;58.86;99297.53;4990186;28;20092;-71
2021/03/21 05:49:19;;;;;;;6.32;2.60;;;;;;;1.45;59.44;99285.25;4997111;28;20510;-72
2021/03/21 05:51:57;;;;;;;6.55;3.20;;;;;;;1.57;59.05;99291.31;5004434;28;20396;-69
2021/03/21 05:54:31;;;;;;;4.63;2.70;;;;;;;1.56;59.32;99289.66;5006955;28;20068;-72
2021/03/21 05:57:18;;;;;;;7.40;3.08;;;;;;;1.63;59.68;99274.81;5001438;28;20041;-72
2021/03/21 05:59:58;;;;;;;7.57;2.40;;;;;;;1.58;60.01;99274.38;5000461;28;20510;-75
2021/03/21 06:02:32;;;;;;;5.15;2.92;;;;;;;1.71;59.37;99285.66;5003633;28;20483;-75
2021/03/21 06:05:19;;;;;;;4.53;2.38;;;;;;;1.68;59.69;99271.75;5001324;28;20044;-75
2021/03/21 06:08:11;;;;;;;3.75;2.17;;;;;;;1.62;59.27;99265.09;5012515;28;20030;-74
2021/03/21 06:10:53;;;;;;;10.57;2.65;;;;;;;1.68;59.43;99263.75;5010214;28;20148;-74
2021/03/21 06:13:50;;;;;;;6.78;2.53;;;;;;;1.67;59.80;99270.88;4994425;28;20649;-73
2021/03/21 06:16:52;;;;;;;4.88;2.35;;;;;;;1.69;59.62;99276.09;4995091;28;20124;-74
2021/03/21 06:19:54;;;;;;;5.13;2.40;;;;;;;1.85;59.22;99275.56;4993768;28;20131;-74
2021/03/21 06:22:36;;;;;;;5.93;2.50;;;;;;;1.72;59.43;99262.47;5008775;28;20038;-72
2021/03/21 06:25:21;;;;;;;4.13;2.08;;;;;;;1.82;59.97;99273.19;4999191;28;20030;-72
2021/03/21 06:27:49;;;;;;;4.88;2.20;;;;;;;1.81;59.84;99274.16;4999281;28;20029;-73
2021/03/21 06:30:31;;;;;;;4.55;2.40;;;;;;;1.79;60.11;99276.13;5006281;28;20025;-75
2021/03/21 06:33:38;;;;;;;5.38;2.70;;;;;;;1.80;60.17;99291.97;4984063;28;20801;-74
2021/03/21 06:36:28;;;;;;;3.83;2.22;;;;;;;1.92;59.79;99290.91;4995256;28;20030;-68
2021/03/21 06:39:14;;;;;;;6.97;3.10;;;;;;;1.95;59.58;99290.63;5008507;28;20488;-73
2021/03/21 06:41:58;;;;;;;5.88;2.50;;;;;;;1.97;59.26;99283.34;5018671;28;20036;-73
2021/03/21 06:44:39;;;;;;;4.07;2.17;;;;;;;1.94;58.97;99283.63;5006958;28;20033;-70
2021/03/21 06:47:20;;;;;;;5.38;2.28;;;;;;;1.97;59.29;99277.16;4991255;28;20026;-72
2021/03/21 06:50:23;;;;;;;4.13;2.17;;;;;;;2.01;58.61;99272.38;5006154;28;20037;-72
2021/03/21 06:53:06;;;;;;;5.60;2.17;;;;;;;2.03;58.59;99271.25;4995669;28;20034;-73
2021/03/21 06:55:42;;;;;;;4.10;2.05;;;;;;;2.06;58.30;99273.66;4996795;28;20030;-72
2021/03/21 06:58:38;;;;;;;4.00;2.22;;;;;;;2.09;58.58;99267.19;5008768;28;20057;-71
2021/03/21 07:01:37;;;;;;;6.13;3.08;;;;;;;2.22;58.07;99258.94;5000007;28;20018;-73
2021/03/21 07:04:24;;;;;;;6.13;2.95;;;;;;;2.16;58.51;99260.34;5000311;28;20026;-72
2021/03/21 07:07:07;;;;;;;4.30;2.50;;;;;;;2.22;57.64;99262.44;5008394;28;20021;-72
2021/03/21 07:09:54;;;;;;;5.00;2.28;;;;;;;2.31;58.00;99258.94;4996195;28;20430;-72
2021/03/21 07:12:39;;;;;;;4.90;2.42;;;;;;;2.42;57.55;99260.63;4993065;28;20032;-72
2021/03/21 07:15:19;;;;;;;5.40;2.88;;;;;;;2.45;57.10;99259.50;5006468;28;20466;-72
2021/03/21 07:17:54;;;;;;;7.63;2.67;;;;;;;2.49;56.93;99266.25;5018912;28;20034;-72
2021/03/21 07:20:46;;;;;;;7.65;2.80;;;;;;;2.43;57.17;99262.31;5004419;28;20024;-72
2021/03/21 07:23:47;;;;;;;7.15;2.72;;;;;;;2.37;56.60;99258.38;5004126;28;20431;-73
2021/03/21 07:26:36;;;;;;;10.00;4.53;;;;;;;2.32;57.13;99265.13;5001005;28;20029;-73
2021/03/21 07:29:19;;;;;;;4.40;2.63;;;;;;;2.39;56.80;99264.44;5002548;28;20065;-71
2021/03/21 07:32:02;;;;;;;4.18;2.40;;;;;;;2.44;56.46;99266.69;5001080;28;20073;-71
2021/03/21 07:35:19;;;;;;;4.25;2.20;;;;;;;2.37;57.34;99250.38;5005362;28;20115;-72
2021/03/21 07:38:08;;;;;;;5.07;2.20;;;;;;;2.40;56.91;99258.09;4962424;28;20053;-72
2021/03/21 07:40:48;;;;;;;5.22;2.20;;;;;;;2.42;56.84;99261.47;4998513;28;20073;-73
2021/03/21 07:43:42;;;;;;;3.58;1.90;;;;;;;2.46;56.66;99247.84;4991440;28;20030;-72
2021/03/21 07:46:41;;;;;;;4.47;2.25;;;;;;;2.54;56.50;99251.50;5007248;28;20033;-73
2021/03/21 07:49:09;;;;;;;4.72;2.17;;;;;;;2.60;56.71;99256.28;4995462;28;20116;-74
2021/03/21 07:51:44;;;;;;;4.47;2.22;;;;;;;2.58;57.09;99231.53;5034483;28;20034;-71
2021/03/21 07:54:19;;;;;;;3.80;2.45;;;;;;;2.79;56.96;99243.88;4994731;28;20026;-70
2021/03/21 07:56:50;;;;;;;3.40;2.10;;;;;;;2.88;56.71;99245.69;5008715;28;20558;-74
2021/03/21 07:59:31;;;;;;;5.10;2.50;;;;;;;2.97;56.52;99231.47;5006254;28;20066;-74
2021/03/21 08:01:56;;;;;;;4.32;2.35;;;;;;;2.98;56.13;99224.28;5001729;28;20042;-73
2021/03/21 08:04:29;;;;;;;5.53;1.98;;;;;;;3.04;55.61;99213.88;4995928;28;20030;-72
2021/03/21 08:07:00;;;;;;;5.10;2.65;;;;;;;2.89;56.59;99209.13;4988788;28;20018;-73
2021/03/21 08:09:32;;;;;;;7.22;2.88;;;;;;;2.89;56.80;99201.97;4992623;28;20037;-72
2021/03/21 08:12:24;;;;;;;5.45;3.30;;;;;;;2.95;56.82;99203.19;5003828;28;20022;-68
2021/03/21 08:14:54;;;;;;;5.30;2.63;;;;;;;2.90;56.59;99179.56;5000757;28;20381;-76
2021/03/21 08:17:25;;;;;;;5.50;2.17;;;;;;;2.97;55.87;99159.31;5001729;28;20372;-74
2021/03/21 08:20:03;;;;;;;4.53;2.00;;;;;;;3.01;55.34;99159.84;5002260;28;20048;-72
2021/03/21 08:22:30;;;;;;;4.82;1.98;;;;;;;3.21;54.64;99172.16;4990280;28;20119;-74
2021/03/21 08:25:13;;;;;;;4.95;2.03;;;;;;;3.11;54.60;99165.16;5005250;28;20065;-75
2021/03/21 08:27:38;;;;;;;4.30;1.98;;;;;;;3.27;54.46;99160.88;5000103;28;20034;-75
2021/03/21 08:30:13;;;;;;;4.22;1.90;;;;;;;3.48;53.86;99168.66;4995630;28;20403;-75
2021/03/21 08:32:59;;;;;;;3.30;1.80;;;;;;;3.75;54.12;99174.97;5006684;28;20043;-73
2021/03/21 08:35:24;;;;;;;3.72;2.03;;;;;;;4.08;53.20;99169.94;4994945;28;20037;-77
2021/03/21 08:37:56;;;;;;;5.00;2.53;;;;;;;3.83;53.03;99163.53;5015537;28;20076;-76
2021/03/21 08:40:37;;;;;;;3.60;2.05;;;;;;;4.06;52.78;99135.31;4993106;28;20030;-74
2021/03/21 08:43:24;;;;;;;5.05;2.38;;;;;;;4.34;51.79;99170.00;5003340;28;20033;-73
2021/03/21 08:45:55;;;;;;;;;;;;;;;4.47;51.64;99169.63;5008744;28;20112;-75
2021/03/21 08:48:33;;;;;;;4.75;2.08;;;;;;;4.45;51.18;99172.44;5003856;28;19917;-74
2021/03/21 08:51:19;;;;;;;6.10;2.53;;;;;;;4.29;50.73;99180.34;4997848;28;20019;-75
2021/03/21 08:54:11;;;;;;;4.53;2.50;;;;;;;4.30;51.62;99187.41;4999638;28;20116;-74
2021/03/21 08:56:56;;;;;;;4.47;2.08;;;;;;;4.37;51.61;99183.09;5002781;28;20034;-74
2021/03/21 08:59:44;;;;;;;4.60;2.20;;;;;;;4.12;51.19;99185.56;5005893;28;20079;-75
2021/03/21 09:02:12;;;;;;;6.05;2.20;;;;;;;4.16;51.12;99188.75;5001555;28;20063;-75
2021/03/21 09:04:59;;;;;;;6.75;2.50;;;;;;;4.33;52.20;99200.50;4987295;28;20652;-75
2021/03/21 09:07:27;;;;;;;9.30;3.63;;;;;;;4.11;51.85;99181.22;4999728;28;20092;-77
2021/03/21 09:10:17;;;;;;;5.57;2.25;;;;;;;4.14;51.21;99188.94;4994436;28;20132;-75
2021/03/21 09:12:45;;;;;;;5.97;3.00;;;;;;;4.05;51.89;99189.00;4987290;28;20105;-76
2021/03/21 09:15:16;;;;;;;5.30;2.65;;;;;;;4.18;51.74;99198.34;4999385;28;20126;-75
2021/03/21 09:17:42;;;;;;;7.18;3.17;;;;;;;3.97;51.43;99186.25;5002134;28;20109;-75
2021/03/21 09:20:08;;;;;;;5.10;2.33;;;;;;;4.19;51.96;99188.44;4990314;28;20445;-75
2021/03/21 09:22:41;;;;;;;5.40;2.60;;;;;;;4.31;51.58;99202.47;4999175;28;20752;-75
2021/03/21 09:25:14;;;;;;;5.82;2.80;;;;;;;4.55;51.25;99207.19;4997460;28;20053;-74
2021/03/21 09:27:43;;;;;;;4.25;2.78;;;;;;;4.64;51.02;99210.78;4995282;28;20034;-74
2021/03/21 09:30:20;;;;;;;6.68;2.92;;;;;;;4.73;52.49;99185.72;5004227;28;20092;-74
2021/03/21 09:32:51;;;;;;;7.32;3.58;;;;;;;4.55;50.79;99202.66;5002684;28;20518;-74
2021/03/21 09:35:33;;;;;;;6.68;3.60;;;;;;;4.41;51.53;99207.75;5002124;28;20038;-75
2021/03/21 09:38:06;;;;;;;5.95;3.10;;;;;;;4.60;52.27;99183.44;4984590;28;20034;-76
2021/03/21 09:40:35;;;;;;;6.13;3.00;;;;;;;4.60;50.66;99162.03;5013931;28;20034;-76
2021/03/21 09:43:02;;;;;;;8.35;3.38;;;;;;;4.81;51.40;99180.41;5014712;28;20038;-75
2021/03/21 09:45:28;;;;;;;7.72;4.13;;;;;;;4.87;51.02;99171.75;4989563;28;20068;-76
2021/03/21 09:48:01;;;;;;;8.90;3.75;;;;;;;5.25;50.92;99191.91;5011713;28;20097;-76
2021/03/21 09:50:39;;;;;;;6.13;3.42;;;;;;;5.29;50.55;99200.47;5008581;28;20026;-76
2021/03/21 09:53:39;;;;;;;7.57;3.08;;;;;;;5.49;50.32;99209.97;5001125;28;20025;-68
2021/03/21 09:56:35;;;;;;;5.60;2.95;;;;;;;5.21;50.67;99187.03;5004268;28;20113;-71
2021/03/21 09:59:26;;;;;;;4.65;3.10;;;;;;;5.43;50.05;99196.38;4993198;28;20484;-70
2021/03/21 10:02:21;;;;;;;5.30;2.88;;;;;;;5.60;50.01;99190.06;4995236;28;20038;-71
2021/03/21 10:05:01;;;;;;;4.78;2.50;;;;;;;5.66;50.13;99193.97;5007698;28;20078;-71
2021/03/21 10:07:43;;;;;;;7.50;3.20;;;;;;;5.88;49.96;99189.81;5021410;28;20045;-69
2021/03/21 10:10:23;;;;;;;7.30;3.33;;;;;;;5.73;49.86;99184.22;5013277;28;20430;-69
2021/03/21 10:12:49;;;;;;;4.88;2.90;;;;;;;6.13;50.11;99193.41;5013156;28;20411;-74
2021/03/21 10:15:24;;;;;;;5.68;2.90;;;;;;;6.00;50.58;99193.06;4983213;28;20117;-74
2021/03/21 10:17:55;;;;;;;6.75;3.60;;;;;;;6.12;50.90;99189.91;4993999;28;20029;-73
2021/03/21 10:20:41;;;;;;;7.22;3.47;;;;;;;5.99;51.47;99188.69;5011320;28;20096;-76
2021/03/21 10:23:07;;;;;;;6.45;3.78;;;;;;;5.71;53.31;99172.81;5015152;28;20069;-74
2021/03/21 10:25:38;;;;;;;7.20;3.40;;;;;;;5.58;55.75;99186.72;5011772;28;20064;-73
2021/03/21 10:28:31;;;;;;;4.85;3.30;;;;;;;5.52;57.20;99192.72;5007568;28;20061;-73
2021/03/21 10:31:21;;;;;;;7.68;3.50;;;;;;;5.53;57.56;99190.84;4993003;28;20034;-71
2021/03/21 10:33:47;;;;;;;5.35;3.40;;;;;;;5.44;56.77;99190.00;5007524;28;20062;-70
2021/03/21 10:36:39;;;;;;;8.50;3.80;;;;;;;5.40;57.10;99184.13;5010465;28;20042;-71
2021/03/21 10:39:32;;;;;;;9.82;4.15;;;;;;;5.53;58.33;99183.69;4992206;28;20034;-69
2021/03/21 10:42:00;;;;;;;8.65;3.80;;;;;;;5.42;57.69;99179.44;5013194;28;20065;-74
2021/03/21 10:44:32;;;;;;;7.05;3.70;;;;;;;5.51;58.62;99183.00;5008197;28;20040;-73
2021/03/21 10:47:09;;;;;;;7.65;3.13;;;;;;;5.36;57.27;99179.22;5000362;28;20022;-73
2021/03/21 10:49:44;;;;;;;6.97;3.38;;;;;;;5.37;58.81;99178.22;4997806;28;20451;-72
2021/03/21 10:52:34;;;;;;;6.15;3.60;;;;;;;5.44;57.86;99177.41;4992208;28;20028;-72
2021/03/21 10:55:15;;;;;;;6.90;3.50;;;;;;;5.53;58.50;99172.06;5003854;28;20032;-72
2021/03/21 10:57:49;;;;;;;5.78;3.20;;;;;;;5.46;59.24;99153.94;5002689;28;20412;-73
2021/03/21 11:00:26;;;;;;;7.80;3.60;;;;;;;5.53;59.59;99151.47;5018330;28;20056;-72
2021/03/21 11:02:57;;;;;;;10.45;3.92;;;;;;;5.63;59.09;99143.25;5008706;28;20037;-73
2021/03/21 11:05:46;;;;;;;8.65;4.00;;;;;;;5.32;59.58;99133.13;5018446;28;20030;-74
2021/03/21 11:08:29;;;;;;;6.75;3.83;;;;;;;5.30;59.79;99145.84;5012672;28;20034;-76
2021/03/21 11:10:57;;;;;;;7.07;3.90;;;;;;;5.43;60.08;99142.72;5023639;28;20065;-68
2021/03/21 11:13:35;;;;;;;8.90;4.23;;;;;;;5.56;60.47;99136.88;4999264;28;20034;-68
2021/03/21 11:16:15;;;;;;;8.77;4.13;;;;;;;5.63;59.85;99133.38;5002519;28;20368;-71
2021/03/21 11:18:43;;;;;;;7.15;3.60;;;;;;;5.86;60.13;99141.63;5019436;28;20029;-70
2021/03/21 11:21:14;;;;;;;6.50;3.70;;;;;;;5.84;57.36;99132.06;5010736;28;20026;-71
2021/03/21 11:23:59;;;;;;;7.57;3.70;;;;;;;6.10;57.81;99123.91;5008283;28;20087;-71
2021/03/21 11:26:24;;;;;;;6.97;3.63;;;;;;;6.23;58.01;99121.56;4997784;28;20066;-70
2021/03/21 11:28:52;;;;;;;8.00;4.20;;;;;;;6.18;58.09;99113.16;5019194;28;22562;-71
2021/03/21 11:31:41;;;;;;;7.97;4.40;;;;;;;6.13;58.08;99120.88;5006826;28;20395;-69
2021/03/21 11:34:20;;;;;;;8.88;3.83;;;;;;;6.33;58.00;99126.78;4993565;28;20559;-71
2021/03/21 11:37:32;;;;;;;9.40;3.50;;;;;;;6.39;58.04;99122.56;5015361;28;20479;-71
2021/03/21 11:40:12;;;;;;;8.02;4.10;;;;;;;6.11;58.60;99122.94;4993399;28;20292;-70
2021/03/21 11:42:41;;;;;;;6.68;3.50;;;;;;;6.20;58.21;99131.81;5004644;28;20018;-70
2021/03/21 11:45:12;;;;;;;;;;;;;;;5.92;59.13;99143.69;5013906;28;20088;-71
2021/03/21 11:47:42;;;;;;;5.38;3.30;;;;;;;5.99;59.12;99135.00;5006502;28;19917;-72
2021/03/21 11:50:30;;;;;;;7.55;3.72;;;;;;;5.78;60.32;99130.88;5010853;28;20056;-70
2021/03/21 11:52:58;;;;;;;6.20;3.50;;;;;;;5.77;60.15;99136.44;5014423;28;20045;-71
2021/03/21 11:55:35;;;;;;;4.20;2.97;;;;;;;5.89;59.75;99133.28;5011892;28;20365;-73
2021/03/21 11:58:23;;;;;;;8.73;3.83;;;;;;;6.08;59.50;99123.25;5027837;28;20371;-72
2021/03/21 12:01:08;;;;;;;6.85;3.33;;;;;;;6.47;59.21;99125.25;5007156;28;20151;-71
2021/03/21 12:03:52;;;;;;;7.43;3.45;;;;;;;6.63;57.52;99122.56;4993872;28;20560;-71
2021/03/21 12:06:41;;;;;;;10.05;3.47;;;;;;;6.55;56.42;99122.59;5004212;28;20118;-70
2021/03/21 12:09:11;;;;;;;6.43;3.65;;;;;;;6.24;56.73;99104.47;5029930;28;20079;-71
2021/03/21 12:11:42;;;;;;;9.02;3.67;;;;;;;6.22;57.88;99105.63;5015364;28;20574;-71
2021/03/21 12:14:40;;;;;;;8.93;4.22;;;;;;;6.02;57.81;99111.31;4989765;28;20030;-71
2021/03/21 12:17:31;;;;;;;7.30;3.78;;;;;;;6.07;58.06;99106.28;5020728;28;20107;-71
2021/03/21 12:20:43;;;;;;;6.45;3.55;;;;;;;6.14;59.18;99114.53;5006868;28;20029;-71
2021/03/21 12:23:35;;;;;;;6.78;3.67;;;;;;;6.13;60.71;99112.81;5005668;28;20522;-70
2021/03/21 12:26:13;;;;;;;7.22;3.92;;;;;;;6.26;60.52;99105.13;5019935;28;20022;-70
2021/03/21 12:28:48;;;;;;;10.70;3.67;;;;;;;6.23;61.23;99099.25;5009072;28;20026;-70
2021/03/21 12:31:17;;;;;;;5.28;3.45;;;;;;;6.00;62.30;99102.59;5010438;28;20154;-71